createdAt,value
2023-10-09T00:00:41.500Z,101014.94
2023-10-09T00:05:45.575Z,101024.34
2023-10-09T00:10:50.376Z,101003.19
2023-10-09T00:15:54.982Z,100993.94
2023-10-09T00:21:13.250Z,100977.25
2023-10-09T00:26:17.737Z,100979.00
2023-10-09T00:31:31.094Z,100962.31
2023-10-09T00:36:33.973Z,100950.34
2023-10-09T00:41:36.592Z,100955.19
2023-10-09T00:46:43.243Z,100972.63
2023-10-09T00:51:57.685Z,100977.16
2023-10-09T00:57:07.808Z,100974.63
2023-10-09T01:02:10.938Z,100947.28
2023-10-09T01:07:22.484Z,100938.47
2023-10-09T01:12:23.944Z,100928.13
2023-10-09T01:17:37.392Z,100937.09
2023-10-09T01:22:39.419Z,100930.25
2023-10-09T01:27:41.485Z,100919.81
2023-10-09T01:32:46.554Z,100919.94
2023-10-09T01:37:52.656Z,100915.59
2023-10-09T01:42:54.194Z,100914.16
2023-10-09T01:47:55.907Z,100903.94
2023-10-09T01:52:58.063Z,100897.59
2023-10-09T01:58:02.892Z,100888.16
2023-10-09T02:03:07.059Z,100881.41
2023-10-09T02:08:14.049Z,100874.38
2023-10-09T02:13:18.161Z,100864.44
2023-10-09T02:18:24.185Z,100836.81
2023-10-09T02:23:31.479Z,100830.44
2023-10-09T02:28:36.153Z,100811.69
2023-10-09T02:33:40.335Z,100792.63
2023-10-09T02:38:42.784Z,100800.69
2023-10-09T02:43:48.498Z,100803.97
2023-10-09T02:48:53.992Z,100797.06
2023-10-09T02:54:00.737Z,100779.72
2023-10-09T02:59:08.040Z,100776.84
2023-10-09T03:04:12.141Z,100782.69
2023-10-09T03:09:20.678Z,100788.53
2023-10-09T03:14:27.602Z,100772.28
2023-10-09T03:19:30.900Z,100775.38
2023-10-09T03:24:32.887Z,100777.09
2023-10-09T03:29:34.742Z,100760.66
2023-10-09T03:34:36.267Z,100759.50
2023-10-09T03:39:43.461Z,100750.94
2023-10-09T03:44:50.170Z,100737.09
2023-10-09T03:49:55.721Z,100715.81
2023-10-09T03:54:57.433Z,100705.91
2023-10-09T03:59:58.962Z,100682.41
2023-10-09T04:05:00.795Z,100669.59
2023-10-09T04:10:25.254Z,100664.59
2023-10-09T04:15:26.971Z,100649.63
2023-10-09T04:20:34.308Z,100639.25
2023-10-09T04:25:46.567Z,100633.66
2023-10-09T04:30:54.688Z,100621.25
2023-10-09T04:36:21.723Z,100623.47
2023-10-09T04:41:28.821Z,100624.13
2023-10-09T04:46:44.722Z,100643.06
2023-10-09T04:52:02.326Z,100655.28
2023-10-09T04:57:04.167Z,100658.63
2023-10-09T05:02:06.943Z,100659.72
2023-10-09T05:07:46.901Z,100661.13
2023-10-09T05:12:48.876Z,100651.53
2023-10-09T05:17:57.553Z,100659.22
2023-10-09T05:22:59.523Z,100653.03
2023-10-09T05:28:21.016Z,100652.16
2023-10-09T05:33:34.605Z,100643.06
2023-10-09T05:38:36.939Z,100636.69
2023-10-09T05:43:57.112Z,100611.13
2023-10-09T05:49:10.247Z,100607.88
2023-10-09T05:54:30.688Z,100605.56
2023-10-09T05:59:51.238Z,100584.53
2023-10-09T06:04:55.924Z,100568.25
2023-10-09T06:09:58.822Z,100560.31
2023-10-09T06:15:27.038Z,100553.78
2023-10-09T06:21:03.479Z,100536.91
2023-10-09T06:26:24.740Z,100512.16
2023-10-09T06:31:53.321Z,100503.66
2023-10-09T06:36:55.628Z,100493.19
2023-10-09T06:42:10.573Z,100503.13
2023-10-09T06:47:14.157Z,100499.47
2023-10-09T06:52:16.770Z,100477.66
2023-10-09T06:57:38.816Z,100483.59
2023-10-09T07:02:47.326Z,100478.06
2023-10-09T07:07:56.202Z,100477.88
2023-10-09T07:12:58.355Z,100479.13
2023-10-09T07:18:19.828Z,100469.91
2023-10-09T07:23:22.736Z,100457.44
2023-10-09T07:28:31.037Z,100448.72
2023-10-09T07:33:53.411Z,100449.88
2023-10-09T07:38:56.313Z,100446.66
2023-10-09T07:43:58.599Z,100445.31
2023-10-09T07:49:10.592Z,100450.28
2023-10-09T07:54:15.823Z,100451.63
2023-10-09T07:59:19.719Z,100437.59
2023-10-09T08:04:44.810Z,100427.88
2023-10-09T08:09:49.644Z,100418.84
2023-10-09T08:14:51.141Z,100426.78
2023-10-09T08:19:55.750Z,100428.41
2023-10-09T08:24:58.436Z,100406.13
2023-10-09T08:30:18.906Z,100384.31
2023-10-09T08:35:30.801Z,100391.63
2023-10-09T08:40:40.325Z,100399.81
2023-10-09T08:45:46.877Z,100401.78
2023-10-09T08:50:55.363Z,100390.00
2023-10-09T08:55:56.942Z,100381.09
2023-10-09T09:00:59.932Z,100388.19
2023-10-09T09:06:03.072Z,100389.41
2023-10-09T09:11:29.145Z,100383.69
2023-10-09T09:16:31.970Z,100401.44
2023-10-09T09:21:41.901Z,100405.91
2023-10-09T09:26:47.410Z,100416.44
2023-10-09T09:32:07.570Z,100413.66
2023-10-09T09:37:14.973Z,100408.03
2023-10-09T09:42:18.582Z,100397.59
2023-10-09T09:47:28.370Z,100407.22
2023-10-09T09:52:39.348Z,100391.88
2023-10-09T09:57:42.323Z,100389.94
2023-10-09T10:02:46.445Z,100403.31
2023-10-09T10:07:50.602Z,100393.28
2023-10-09T10:13:02.431Z,100355.84
2023-10-09T10:18:08.462Z,100351.00
2023-10-09T10:23:18.763Z,100360.78
2023-10-09T10:28:54.027Z,100365.13
2023-10-09T10:33:59.591Z,100360.41
2023-10-09T10:39:05.747Z,100356.56
2023-10-09T10:44:25.588Z,100373.72
2023-10-09T10:49:37.627Z,100363.34
2023-10-09T10:54:39.179Z,100359.84
2023-10-09T10:59:42.813Z,100345.69
2023-10-09T11:04:54.929Z,100356.19
2023-10-09T11:10:10.468Z,100358.34
2023-10-09T11:15:23.460Z,100352.22
2023-10-09T11:20:33.316Z,100356.88
2023-10-09T11:25:35.061Z,100348.50
2023-10-09T11:30:37.271Z,100340.16
2023-10-09T11:35:38.859Z,100323.13
2023-10-09T11:41:05.156Z,100331.22
2023-10-09T11:46:30.788Z,100334.72
2023-10-09T11:51:32.363Z,100321.03
2023-10-09T11:56:34.070Z,100331.69
2023-10-09T12:01:38.394Z,100320.28
2023-10-09T12:06:40.363Z,100337.94
2023-10-09T12:11:54.056Z,100331.84
2023-10-09T12:17:06.625Z,100331.38
2023-10-09T12:22:12.067Z,100316.94
2023-10-09T12:27:13.802Z,100330.69
2023-10-09T12:32:20.548Z,100331.44
2023-10-09T12:37:22.358Z,100311.78
2023-10-09T12:42:23.973Z,100307.03
2023-10-09T12:47:26.339Z,100297.50
2023-10-09T12:52:31.102Z,100295.81
2023-10-09T12:57:32.779Z,100293.81
2023-10-09T13:02:35.041Z,100296.13
2023-10-09T13:07:36.737Z,100299.13
2023-10-09T13:12:44.294Z,100306.13
2023-10-09T13:17:45.891Z,100318.88
2023-10-09T13:22:50.967Z,100309.28
2023-10-09T13:27:52.471Z,100311.53
2023-10-09T13:32:54.040Z,100295.81
2023-10-09T13:37:55.591Z,100282.34
2023-10-09T13:42:59.799Z,100265.00
2023-10-09T13:48:04.249Z,100278.13
2023-10-09T13:53:13.815Z,100280.31
2023-10-09T13:58:21.905Z,100279.47
2023-10-09T14:03:25.709Z,100265.13
2023-10-09T14:08:30.065Z,100272.75
2023-10-09T14:13:31.585Z,100282.13
2023-10-09T14:18:33.026Z,100296.84
2023-10-09T14:23:35.769Z,100305.41
2023-10-09T14:28:38.561Z,100329.09
2023-10-09T14:33:41.632Z,100318.44
2023-10-09T14:38:43.505Z,100319.16
2023-10-09T14:43:45.073Z,100320.63
2023-10-09T14:48:47.366Z,100329.97
2023-10-09T14:53:50.537Z,100333.94
2023-10-09T14:58:52.527Z,100329.50
2023-10-09T15:03:56.359Z,100349.59
2023-10-09T15:09:09.121Z,100342.94
2023-10-09T15:14:10.626Z,100348.56
2023-10-09T15:19:12.117Z,100341.81
2023-10-09T15:24:20.472Z,100341.78
2023-10-09T15:29:29.127Z,100344.34
2023-10-09T15:34:32.287Z,100365.25
2023-10-09T15:39:33.942Z,100360.78
2023-10-09T15:44:38.254Z,100372.81
2023-10-09T15:49:45.154Z,100364.47
2023-10-09T15:54:49.128Z,100356.28
2023-10-09T15:59:51.647Z,100357.06
2023-10-09T16:04:54.240Z,100359.53
2023-10-09T16:09:56.586Z,100364.22
2023-10-09T16:14:58.150Z,100374.19
2023-10-09T16:20:01.001Z,100371.25
2023-10-09T16:25:10.392Z,100392.00
2023-10-09T16:30:14.199Z,100414.81
2023-10-09T16:35:15.837Z,100404.66
2023-10-09T16:40:21.270Z,100410.09
2023-10-09T16:45:22.970Z,100427.38
2023-10-09T16:50:29.602Z,100420.09
2023-10-09T16:55:31.641Z,100412.31
2023-10-09T17:00:36.315Z,100414.06
2023-10-09T17:05:52.858Z,100431.72
2023-10-09T17:10:54.385Z,100418.47
2023-10-09T17:15:56.414Z,100415.31
2023-10-09T17:21:00.695Z,100421.94
2023-10-09T17:26:05.318Z,100424.63
2023-10-09T17:31:06.929Z,100423.84
2023-10-09T17:36:08.455Z,100434.44
2023-10-09T17:41:10.197Z,100441.13
2023-10-09T17:46:13.090Z,100446.66
2023-10-09T17:51:15.969Z,100448.91
2023-10-09T17:56:19.705Z,100443.84
2023-10-09T18:01:25.906Z,100450.31
2023-10-09T18:06:27.734Z,100453.34
2023-10-09T18:11:29.650Z,100452.25
2023-10-09T18:16:31.160Z,100459.81
2023-10-09T18:21:36.958Z,100465.22
2023-10-09T18:26:38.445Z,100460.69
2023-10-09T18:31:41.971Z,100456.56
2023-10-09T18:36:43.489Z,100459.59
2023-10-09T18:41:45.762Z,100453.75
2023-10-09T18:46:48.397Z,100452.03
2023-10-09T18:51:49.975Z,100458.97
2023-10-09T18:56:51.631Z,100461.75
2023-10-09T19:01:54.170Z,100466.94
2023-10-09T19:06:55.661Z,100465.22
2023-10-09T19:11:58.506Z,100452.72
2023-10-09T19:17:01.402Z,100457.34
2023-10-09T19:22:03.257Z,100466.06
2023-10-09T19:27:06.033Z,100445.56
2023-10-09T19:32:08.947Z,100440.41
2023-10-09T19:37:10.465Z,100451.38
2023-10-09T19:42:13.040Z,100446.84
2023-10-09T19:47:14.513Z,100462.72
2023-10-09T19:52:16.004Z,100467.91
2023-10-09T19:57:18.564Z,100483.09
2023-10-09T20:02:20.427Z,100467.91
2023-10-09T20:07:22.068Z,100469.19
2023-10-09T20:12:24.179Z,100475.78
2023-10-09T20:17:25.661Z,100488.94
2023-10-09T20:22:28.639Z,100496.09
2023-10-09T20:27:31.619Z,100491.09
2023-10-09T20:32:33.157Z,100504.25
2023-10-09T20:37:35.422Z,100512.06
2023-10-09T20:42:37.416Z,100501.25
2023-10-09T20:47:43.971Z,100508.59
2023-10-09T20:52:47.051Z,100504.34
2023-10-09T20:57:58.053Z,100493.88
2023-10-09T21:03:00.290Z,100496.16
2023-10-09T21:08:02.175Z,100492.63
2023-10-09T21:13:03.959Z,100496.69
2023-10-09T21:18:07.213Z,100498.19
2023-10-09T21:23:10.819Z,100499.28
2023-10-09T21:28:12.437Z,100488.94
2023-10-09T21:33:13.939Z,100487.63
2023-10-09T21:38:15.891Z,100493.34
2023-10-09T21:43:19.161Z,100482.00
2023-10-09T21:48:20.715Z,100484.50
2023-10-09T21:53:23.657Z,100490.44
2023-10-09T21:58:25.603Z,100494.75
2023-10-09T22:03:28.445Z,100498.63
2023-10-09T22:08:30.188Z,100508.34
2023-10-09T22:13:31.628Z,100507.72
2023-10-09T22:18:33.546Z,100518.06
2023-10-09T22:23:36.673Z,100513.22
2023-10-09T22:28:41.852Z,100508.81
2023-10-09T22:33:47.223Z,100510.53
2023-10-09T22:38:58.436Z,100515.91
2023-10-09T22:44:00.689Z,100498.00
2023-10-09T22:49:14.592Z,100509.31
2023-10-09T22:54:24.124Z,100505.97
2023-10-09T22:59:28.181Z,100496.28
2023-10-09T23:04:37.833Z,100504.78
2023-10-09T23:09:49.306Z,100506.38
2023-10-09T23:14:52.199Z,100494.09
2023-10-09T23:19:57.240Z,100498.22
2023-10-09T23:25:18.909Z,100494.31
2023-10-09T23:30:23.810Z,100489.69
2023-10-09T23:35:45.037Z,100514.16
2023-10-09T23:40:47.122Z,100503.19
2023-10-09T23:45:58.120Z,100503.19
2023-10-09T23:51:02.309Z,100506.38
2023-10-09T23:56:12.139Z,100503.19
